Tunis, Tunisia
Current Conditions -  °F | °C
As of 3:00 PM on Sunday 21 Dec 2014 (Local Time) from DTTA Reporting Station
Scattered Clouds Scattered Clouds  
Wind Chill: 16°   Ceiling: Unl
Heat Index: 16°   Visibility: 6mi
Dew Point:   Wind: 17mph
Humidity: 59%   Direction: 300°WNW
Pressure: 30.36"   Gusts: NA
Location:  36.84°N, 10.22°E
Report Text: DTTA 211400Z 30015KT 9999 SCT026 16/08 Q1028 NOSIG
Loading
Personal Weather Stations






























Interactive Weather Map New forecast layout! Learn more

10-Day Weather Forecast

Advertisements
Track Severe Weather on mobile